x

Caribbean Valley - 76 Nm Ssw Of Plymouth, Montserrat (42060) Wave Buoy

9:50am - Sun 14th Feb 2016 All times are AST. -4 hours from GMT.

  • Sig Wave height 3.9ft
  • Swell Direction
  • Peak Period 9s
  • Average Period 6s
  • Wind
    11mph, 16mph gusts
  • Sea Temp 80°f
  • Air Temp 79°f
  • Sea Pressure 1016.3mb
  • Caribbean Valley - 76 Nm Ssw Of Plymouth, Montserrat
  • Caribbean Valley - 76 Nm Ssw Of Plymouth, Montserrat

More Historic Weather Station data

Upgrade to MSW Pro to gain access to the past 30 days of data for over 8000 Wavebouys and Weather Stations around the globe.

Join Pro

Comparision Forecast

View Surf forecast
   
Sun 02/14 9:50am 4ft 9s 6s 11 16 mph 1016.3mb 80f 79f
8:50am 4ft 10s 6s 11 13 mph 1015.5mb 80f 79f
7:50am 4ft 10s 6s 11 13 mph 1015.3mb 80f 80f
6:50am 4ft 9s 6s 13 16 mph 1014.8mb 80f 76f
5:50am 4.5ft 8s 5s 9 11 mph 1014.1mb 80f 79f
4:50am 4ft 9s 5s 9 11 mph 1013.7mb 80f 78f
3:50am 4.5ft 9s 6s 9 11 mph 1013.8mb 80f 79f
2:50am 3.5ft 9s 5s 11 13 mph 1013.9mb 80f 79f
1:50am 4ft 9s 5s 9 11 mph 1014.8mb 80f 79f
12:50am 4ft 9s 5s 11 13 mph 1015.5mb 80f 79f
Sat 02/13 11:50pm 4ft 9s 6s 4
mph
1016.1mb 80f 77f
10:50pm 3.5ft 9s 5s 16 20 mph 1016.7mb 80f 74f
9:50pm 4ft 9s 6s 9
mph
1016.6mb 80f 79f
8:50pm 3.5ft 9s 6s 9 11 mph 1016.3mb 81f 79f
7:50pm 3.5ft 9s 5s 7 11 mph 1015.9mb 81f 80f
6:50pm 3.5ft 10s 5s 9 11 mph 1015.4mb 81f 80f
5:50pm 3.5ft 9s 5s 9 11 mph 1014.9mb 81f 80f
4:50pm 3.5ft 9s 5s 9 13 mph 1014.4mb 81f 80f
3:50pm 3.5ft 10s 5s 11 13 mph 1014.2mb 81f 79f
2:50pm 4.5ft 9s 6s 11 13 mph 1014.4mb 81f 79f
1:50pm 4.5ft 9s 6s 9 11 mph 1015.3mb 81f 79f
12:50pm 4ft 10s 6s 13
mph
1016.2mb 81f 79f
11:50am 4.5ft 9s 5s 11 13 mph 1016.9mb 81f 79f
10:50am 4.5ft 11s 5s 13 16 mph 1017.6mb 80f 79f
9:50am 4.5ft 10s 5s 16 20 mph 1017.5mb 80f 79f
8:50am 5ft 6s 5s 18 20 mph 1016.9mb 80f 79f
7:50am 5ft 9s 5s 18 20 mph 1016.5mb 80f 79f
6:50am 5ft 6s 5s 16 20 mph 1016.1mb 80f 78f
5:50am 5ft 6s 5s 18 20 mph 1015.5mb 80f 78f
4:50am 5ft 6s 5s 18 22 mph 1015mb 80f 78f
3:50am 5ft 6s 5s 18 22 mph 1015mb 80f 78f
2:50am 5ft 6s 5s 18 22 mph 1015.3mb 80f 79f
1:50am 5ft 9s 5s 18 22 mph 1016mb 80f 79f
12:50am 5ft 6s 5s 20 25 mph 1016.4mb 80f 79f
Fri 02/12 11:50pm 5ft 9s 5s 22 25 mph 1016.8mb 80f 79f
10:50pm 5ft 8s 5s 20 22 mph 1017.5mb 80f 79f
9:50pm 5ft 6s 5s 18 22 mph 1017.8mb 80f 79f
8:50pm 5ft 9s 5s 20 22 mph 1017.3mb 80f 79f
7:50pm 5ft 8s 5s 20 25 mph 1016.9mb 80f 79f
6:50pm 5ft 8s 5s 20 22 mph 1016.6mb 81f 79f
5:50pm 4.5ft 9s 5s 18 22 mph 1016.5mb 81f 80f
4:50pm 5ft 9s 5s 18 20 mph 1016.4mb 81f 80f
3:50pm 5ft 9s 5s 18 20 mph 1016.5mb 81f 79f
2:50pm 5ft 5s 5s 18 20 mph 1016.6mb 81f 79f
1:50pm 5ft 5s 5s 20 25 mph 1017.3mb 81f 79f
12:50pm 5ft 5s 5s 18 20 mph 1018.5mb 81f 80f
11:50am 4.5ft 5s 5s 18 20 mph 1019.2mb 80f 80f
10:50am 5ft 5s 5s 18 20 mph 1019.9mb 80f 80f
9:50am 4.5ft 6s 5s 18 22 mph 1019.8mb 80f 80f
8:50am 4.5ft 5s 5s 18 22 mph 1018.9mb 80f 80f
7:50am 4.5ft 5s 5s 20 22 mph 1018.3mb 80f 79f
6:50am 4.5ft 9s 5s 18 22 mph 1017.6mb 80f 79f
5:50am 4.5ft 6s 5s 18 22 mph 1017.1mb 80f 79f
4:50am 4.5ft 6s 5s 18 22 mph 1016.7mb 80f 79f
3:50am 4.5ft 6s 5s 18 20 mph 1016.7mb 80f 79f
2:50am 4.5ft 10s 5s 18 20 mph 1016.9mb 80f 79f
1:50am 4.5ft 8s 5s 18 20 mph 1017.2mb 80f 79f
12:50am 4.5ft 9s 5s 18 20 mph 1018mb 80f 79f
Thu 02/11 11:50pm 4.5ft 9s 5s 18 22 mph 1018.1mb 80f 79f
10:50pm 4ft 9s 5s 20 22 mph 1018.4mb 80f 79f
9:50pm 4ft 9s 5s 20 22 mph 1018.5mb 81f 79f
8:50pm 3.5ft 9s 5s 16 20 mph 1018.3mb 81f 79f
7:50pm 3.5ft 9s 5s 16 18 mph 1017.7mb 81f 79f
6:50pm 4ft 9s 5s 13 16 mph 1017.1mb 81f 79f
5:50pm 4ft 10s 5s 13
mph
1016.8mb 81f 79f
4:50pm 4ft 10s 5s 13 16 mph 1016.3mb 81f 79f
3:50pm 4ft 9s 6s 16 18 mph 1016.1mb 81f 79f
2:50pm 4ft 8s 6s 11 13 mph 1016.2mb 81f 80f
1:50pm 3.5ft 9s 6s 11
mph
1016.7mb 81f 80f
12:50pm 3.5ft 9s 6s 11 13 mph 1017.7mb 81f 80f
11:50am 3.5ft 10s 6s 11 13 mph 1018.7mb 81f 80f
10:50am 3.5ft 8s 5s 4 7 mph 1019.5mb 81f 80f
9:50am 4ft 9s 6s 9 11 mph 1019.9mb 80f 80f
8:50am 4ft 9s 6s 9 13 mph 1019.3mb 80f 79f
7:50am 4.5ft 8s 6s 11 16 mph 1018.7mb 80f 79f
6:50am 4.5ft 10s 5s 13 16 mph 1018.2mb 80f 78f
5:50am 4.5ft 6s 5s 13 16 mph 1017.7mb 80f 79f
4:50am 4.5ft 6s 5s 13 16 mph 1017.3mb 80f 78f
3:50am 5ft 9s 5s 13 18 mph 1016.9mb 80f 79f
2:50am 5ft 6s 5s 16 20 mph 1016.9mb 80f 79f
1:50am 5ft 9s 5s 18 20 mph 1017.4mb 80f 79f
12:50am 5ft 6s 5s 16 20 mph 1018.1mb 80f 79f
Wed 02/10 11:50pm 5ft 6s 5s 16 20 mph 1018.6mb 80f 79f
10:50pm 4.5ft 9s 5s 18 20 mph 1018.6mb 80f 80f
9:50pm 4.5ft 9s 5s 9 16 mph 1018.7mb 80f 80f
8:50pm 4.5ft 6s 5s 16 20 mph 1017.9mb 80f 80f
7:50pm 4.5ft 9s 5s 16 18 mph 1017.6mb 80f 79f
6:50pm 4.5ft 10s 5s 16 18 mph 1017.3mb 81f 80f
5:50pm 4.5ft 9s 5s 16 18 mph 1017mb 81f 80f
4:50pm 4.5ft 10s 6s 13 16 mph 1017mb 81f 80f
3:50pm 4.5ft 6s 5s 11 13 mph 1016.7mb 81f 80f